sensor_id;sensor_type;location;lat;lon;timestamp;pressure;altitude;pressure_sealevel;temperature;humidity
4745;BME280;2386;42.138;24.746;2023-02-16T00:01:55;101007.75;;;5.60;73.42
4745;BME280;2386;42.138;24.746;2023-02-16T00:04:26;100990.44;;;5.63;72.90
4745;BME280;2386;42.138;24.746;2023-02-16T00:06:54;100991.78;;;5.59;74.16
4745;BME280;2386;42.138;24.746;2023-02-16T00:09:20;101008.94;;;5.66;73.95
4745;BME280;2386;42.138;24.746;2023-02-16T00:11:46;101000.38;;;5.71;74.14
4745;BME280;2386;42.138;24.746;2023-02-16T00:14:33;101005.22;;;5.51;75.00
4745;BME280;2386;42.138;24.746;2023-02-16T00:16:58;101002.06;;;5.21;77.57
4745;BME280;2386;42.138;24.746;2023-02-16T00:19:35;101004.81;;;5.38;76.65
4745;BME280;2386;42.138;24.746;2023-02-16T00:22:01;101004.44;;;5.24;77.04
4745;BME280;2386;42.138;24.746;2023-02-16T00:24:28;100996.38;;;5.16;78.51
4745;BME280;2386;42.138;24.746;2023-02-16T00:26:55;100996.53;;;5.15;78.66
4745;BME280;2386;42.138;24.746;2023-02-16T00:31:50;100991.94;;;5.07;79.59
4745;BME280;2386;42.138;24.746;2023-02-16T00:34:35;100990.38;;;4.97;80.11
4745;BME280;2386;42.138;24.746;2023-02-16T00:37:03;100989.22;;;4.99;79.96
4745;BME280;2386;42.138;24.746;2023-02-16T00:39:29;100994.91;;;4.96;80.07
4745;BME280;2386;42.138;24.746;2023-02-16T00:41:59;100991.47;;;4.78;80.80
4745;BME280;2386;42.138;24.746;2023-02-16T00:44:40;100994.63;;;4.73;81.49
4745;BME280;2386;42.138;24.746;2023-02-16T00:47:19;100993.31;;;4.77;81.18
4745;BME280;2386;42.138;24.746;2023-02-16T00:49:50;100990.09;;;4.74;81.67
4745;BME280;2386;42.138;24.746;2023-02-16T00:52:37;100992.63;;;4.75;81.88
4745;BME280;2386;42.138;24.746;2023-02-16T00:55:07;100989.03;;;4.67;82.18
4745;BME280;2386;42.138;24.746;2023-02-16T00:57:37;100988.63;;;4.53;82.65
4745;BME280;2386;42.138;24.746;2023-02-16T01:02:36;100981.78;;;4.59;82.78
4745;BME280;2386;42.138;24.746;2023-02-16T01:05:02;100986.22;;;4.42;82.93
4745;BME280;2386;42.138;24.746;2023-02-16T01:07:27;100982.88;;;4.48;83.06
4745;BME280;2386;42.138;24.746;2023-02-16T01:10:11;100981.84;;;4.41;83.21
4745;BME280;2386;42.138;24.746;2023-02-16T01:12:55;100986.00;;;4.36;83.56
4745;BME280;2386;42.138;24.746;2023-02-16T01:15:22;100982.94;;;4.31;83.70
4745;BME280;2386;42.138;24.746;2023-02-16T01:17:48;100984.63;;;4.32;84.36
4745;BME280;2386;42.138;24.746;2023-02-16T01:20:20;100980.09;;;4.32;84.14
4745;BME280;2386;42.138;24.746;2023-02-16T01:22:46;100980.25;;;4.31;84.35
4745;BME280;2386;42.138;24.746;2023-02-16T01:25:12;100980.78;;;4.34;83.34
4745;BME280;2386;42.138;24.746;2023-02-16T01:27:39;100977.59;;;4.13;83.85
4745;BME280;2386;42.138;24.746;2023-02-16T01:30:06;100982.19;;;4.20;84.01
4745;BME280;2386;42.138;24.746;2023-02-16T01:32:32;100971.78;;;4.17;83.53
4745;BME280;2386;42.138;24.746;2023-02-16T01:34:57;100979.34;;;4.22;83.47
4745;BME280;2386;42.138;24.746;2023-02-16T01:37:23;100977.47;;;3.96;84.93
4745;BME280;2386;42.138;24.746;2023-02-16T01:39:49;100970.94;;;3.99;85.71
4745;BME280;2386;42.138;24.746;2023-02-16T01:42:37;100975.09;;;3.93;85.91
4745;BME280;2386;42.138;24.746;2023-02-16T01:45:18;100968.34;;;3.89;85.86
4745;BME280;2386;42.138;24.746;2023-02-16T01:47:53;100971.94;;;3.98;86.42
4745;BME280;2386;42.138;24.746;2023-02-16T01:50:26;100972.56;;;3.92;85.03
4745;BME280;2386;42.138;24.746;2023-02-16T01:53:20;100977.69;;;3.85;85.79
4745;BME280;2386;42.138;24.746;2023-02-16T01:55:48;100971.09;;;3.80;86.05
4745;BME280;2386;42.138;24.746;2023-02-16T02:03:55;100978.31;;;3.79;86.61
4745;BME280;2386;42.138;24.746;2023-02-16T02:06:45;100973.63;;;3.81;86.57
4745;BME280;2386;42.138;24.746;2023-02-16T02:09:18;100976.25;;;3.73;86.70
4745;BME280;2386;42.138;24.746;2023-02-16T02:11:49;100979.00;;;3.81;86.62
4745;BME280;2386;42.138;24.746;2023-02-16T02:14:30;100976.78;;;3.77;87.77
4745;BME280;2386;42.138;24.746;2023-02-16T02:17:00;100973.03;;;3.52;87.68
4745;BME280;2386;42.138;24.746;2023-02-16T02:19:27;100973.34;;;3.49;88.45
4745;BME280;2386;42.138;24.746;2023-02-16T02:28:28;100969.81;;;3.84;87.16
4745;BME280;2386;42.138;24.746;2023-02-16T02:33:53;100973.88;;;3.52;87.51
4745;BME280;2386;42.138;24.746;2023-02-16T02:36:37;100974.19;;;3.67;87.34
4745;BME280;2386;42.138;24.746;2023-02-16T02:42:14;100979.03;;;3.63;87.36
4745;BME280;2386;42.138;24.746;2023-02-16T02:44:52;100981.69;;;3.46;87.72
4745;BME280;2386;42.138;24.746;2023-02-16T02:47:19;100980.47;;;3.58;87.40
4745;BME280;2386;42.138;24.746;2023-02-16T02:49:52;100986.06;;;3.65;88.10
4745;BME280;2386;42.138;24.746;2023-02-16T02:52:19;100983.31;;;3.56;88.50
4745;BME280;2386;42.138;24.746;2023-02-16T02:54:46;100988.38;;;3.59;88.57
4745;BME280;2386;42.138;24.746;2023-02-16T02:57:38;100982.78;;;3.53;90.58
4745;BME280;2386;42.138;24.746;2023-02-16T03:00:44;100986.28;;;3.89;87.42
4745;BME280;2386;42.138;24.746;2023-02-16T03:03:19;100981.06;;;3.87;86.45
4745;BME280;2386;42.138;24.746;2023-02-16T03:05:50;100993.50;;;3.88;87.40
4745;BME280;2386;42.138;24.746;2023-02-16T03:08:20;100987.75;;;3.83;87.48
4745;BME280;2386;42.138;24.746;2023-02-16T03:10:56;100986.22;;;3.81;88.11
4745;BME280;2386;42.138;24.746;2023-02-16T03:13:45;100978.53;;;4.04;85.74
4745;BME280;2386;42.138;24.746;2023-02-16T03:16:15;100990.19;;;4.12;84.52
4745;BME280;2386;42.138;24.746;2023-02-16T03:18:45;100986.34;;;4.15;84.11
4745;BME280;2386;42.138;24.746;2023-02-16T03:21:31;100990.03;;;3.96;85.60
4745;BME280;2386;42.138;24.746;2023-02-16T03:24:21;100983.97;;;3.76;86.84
4745;BME280;2386;42.138;24.746;2023-02-16T03:27:07;100981.16;;;3.60;88.41
4745;BME280;2386;42.138;24.746;2023-02-16T03:29:52;100983.13;;;3.76;86.83
4745;BME280;2386;42.138;24.746;2023-02-16T03:32:19;100991.34;;;3.56;87.37
4745;BME280;2386;42.138;24.746;2023-02-16T03:34:45;100984.44;;;3.72;86.97
4745;BME280;2386;42.138;24.746;2023-02-16T03:37:11;100979.06;;;3.72;86.55
4745;BME280;2386;42.138;24.746;2023-02-16T03:39:37;100975.03;;;3.50;87.51
4745;BME280;2386;42.138;24.746;2023-02-16T03:42:22;100975.41;;;3.55;87.88
4745;BME280;2386;42.138;24.746;2023-02-16T03:44:47;100969.97;;;3.65;88.32
4745;BME280;2386;42.138;24.746;2023-02-16T03:47:13;100981.75;;;3.72;86.76
4745;BME280;2386;42.138;24.746;2023-02-16T03:49:38;100978.00;;;3.82;86.12
4745;BME280;2386;42.138;24.746;2023-02-16T03:52:04;100976.41;;;3.89;85.25
4745;BME280;2386;42.138;24.746;2023-02-16T03:54:29;100971.25;;;3.78;85.66
4745;BME280;2386;42.138;24.746;2023-02-16T03:56:55;100972.22;;;3.69;86.12
4745;BME280;2386;42.138;24.746;2023-02-16T03:59:20;100976.00;;;3.84;86.07
4745;BME280;2386;42.138;24.746;2023-02-16T04:01:45;100971.34;;;3.86;85.44
4745;BME280;2386;42.138;24.746;2023-02-16T04:04:11;100965.34;;;3.92;85.49
4745;BME280;2386;42.138;24.746;2023-02-16T04:06:36;100963.91;;;3.80;85.38
4745;BME280;2386;42.138;24.746;2023-02-16T04:09:02;100970.34;;;3.87;85.38
4745;BME280;2386;42.138;24.746;2023-02-16T04:11:27;100964.50;;;3.74;86.35
4745;BME280;2386;42.138;24.746;2023-02-16T04:14:11;100970.78;;;3.83;85.83
4745;BME280;2386;42.138;24.746;2023-02-16T04:16:37;100969.84;;;3.66;87.05
4745;BME280;2386;42.138;24.746;2023-02-16T04:19:02;100969.81;;;3.84;85.88
4745;BME280;2386;42.138;24.746;2023-02-16T04:21:28;100957.59;;;3.89;84.64
4745;BME280;2386;42.138;24.746;2023-02-16T04:23:53;100977.47;;;3.79;86.38
4745;BME280;2386;42.138;24.746;2023-02-16T04:26:19;100974.34;;;3.66;87.33
4745;BME280;2386;42.138;24.746;2023-02-16T04:28:44;100964.75;;;3.81;86.41
4745;BME280;2386;42.138;24.746;2023-02-16T04:31:09;100964.47;;;3.66;86.85
4745;BME280;2386;42.138;24.746;2023-02-16T04:33:35;100972.19;;;3.51;88.25
4745;BME280;2386;42.138;24.746;2023-02-16T04:36:00;100966.97;;;3.50;88.21
4745;BME280;2386;42.138;24.746;2023-02-16T04:38:25;100970.34;;;3.52;88.08
4745;BME280;2386;42.138;24.746;2023-02-16T04:40:54;100970.72;;;3.39;88.99
4745;BME280;2386;42.138;24.746;2023-02-16T04:43:19;100984.72;;;3.33;89.96
4745;BME280;2386;42.138;24.746;2023-02-16T04:45:45;100974.69;;;3.35;90.19
4745;BME280;2386;42.138;24.746;2023-02-16T04:48:11;100984.47;;;3.26;90.75
4745;BME280;2386;42.138;24.746;2023-02-16T04:50:36;100984.81;;;3.41;89.69
4745;BME280;2386;42.138;24.746;2023-02-16T04:53:02;100984.13;;;3.39;89.19
4745;BME280;2386;42.138;24.746;2023-02-16T04:55:27;100989.94;;;3.35;90.29
4745;BME280;2386;42.138;24.746;2023-02-16T04:57:53;100993.53;;;3.25;90.92
4745;BME280;2386;42.138;24.746;2023-02-16T05:00:19;100986.38;;;3.16;91.59
4745;BME280;2386;42.138;24.746;2023-02-16T05:02:44;100996.75;;;3.29;90.69
4745;BME280;2386;42.138;24.746;2023-02-16T05:05:10;101002.56;;;3.24;90.50
4745;BME280;2386;42.138;24.746;2023-02-16T05:07:35;101006.53;;;3.20;90.74
4745;BME280;2386;42.138;24.746;2023-02-16T05:10:01;101005.47;;;3.31;90.07
4745;BME280;2386;42.138;24.746;2023-02-16T05:12:26;101001.22;;;3.38;88.81
4745;BME280;2386;42.138;24.746;2023-02-16T05:15:10;101011.03;;;3.47;88.49
4745;BME280;2386;42.138;24.746;2023-02-16T05:17:35;101013.47;;;3.41;88.53
4745;BME280;2386;42.138;24.746;2023-02-16T05:20:01;101011.25;;;3.36;89.51
4745;BME280;2386;42.138;24.746;2023-02-16T05:22:26;101022.84;;;3.54;88.91
4745;BME280;2386;42.138;24.746;2023-02-16T05:24:58;101013.63;;;3.39;89.01
4745;BME280;2386;42.138;24.746;2023-02-16T05:27:26;101006.19;;;3.33;90.10
4745;BME280;2386;42.138;24.746;2023-02-16T05:29:52;101007.59;;;3.00;90.31
4745;BME280;2386;42.138;24.746;2023-02-16T05:32:17;101002.81;;;2.67;93.75
4745;BME280;2386;42.138;24.746;2023-02-16T05:34:43;101012.53;;;2.68;94.48
4745;BME280;2386;42.138;24.746;2023-02-16T05:37:13;101019.72;;;2.77;95.05
4745;BME280;2386;42.138;24.746;2023-02-16T05:39:38;101019.53;;;2.88;94.06
4745;BME280;2386;42.138;24.746;2023-02-16T05:42:04;101019.31;;;2.99;92.92
4745;BME280;2386;42.138;24.746;2023-02-16T05:44:29;101019.16;;;3.01;93.46
4745;BME280;2386;42.138;24.746;2023-02-16T05:46:55;101026.88;;;2.86;92.62
4745;BME280;2386;42.138;24.746;2023-02-16T05:49:20;101023.25;;;2.68;94.91
4745;BME280;2386;42.138;24.746;2023-02-16T05:51:46;101035.09;;;2.75;93.75
4745;BME280;2386;42.138;24.746;2023-02-16T05:54:11;101030.53;;;2.85;94.06
4745;BME280;2386;42.138;24.746;2023-02-16T05:56:46;101032.72;;;2.99;92.68
4745;BME280;2386;42.138;24.746;2023-02-16T05:59:16;101030.72;;;3.01;92.51
4745;BME280;2386;42.138;24.746;2023-02-16T06:01:41;101037.44;;;3.15;91.08
4745;BME280;2386;42.138;24.746;2023-02-16T06:04:08;101034.22;;;3.11;91.77
4745;BME280;2386;42.138;24.746;2023-02-16T06:06:36;101040.56;;;3.10;91.20
4745;BME280;2386;42.138;24.746;2023-02-16T06:09:02;101031.78;;;3.18;91.27
4745;BME280;2386;42.138;24.746;2023-02-16T06:11:28;101034.84;;;3.33;90.29
4745;BME280;2386;42.138;24.746;2023-02-16T06:14:07;101044.97;;;3.39;89.90
4745;BME280;2386;42.138;24.746;2023-02-16T06:16:34;101047.75;;;3.47;89.88
4745;BME280;2386;42.138;24.746;2023-02-16T06:19:00;101041.09;;;3.51;90.06
4745;BME280;2386;42.138;24.746;2023-02-16T06:21:26;101040.09;;;3.52;89.28
4745;BME280;2386;42.138;24.746;2023-02-16T06:23:52;101048.84;;;3.54;89.58
4745;BME280;2386;42.138;24.746;2023-02-16T06:26:18;101048.22;;;3.78;87.87
4745;BME280;2386;42.138;24.746;2023-02-16T06:28:43;101046.19;;;3.89;87.46
4745;BME280;2386;42.138;24.746;2023-02-16T06:31:09;101048.63;;;4.01;87.21
4745;BME280;2386;42.138;24.746;2023-02-16T06:33:34;101055.63;;;3.93;87.51
4745;BME280;2386;42.138;24.746;2023-02-16T06:36:00;101049.94;;;3.96;88.39
4745;BME280;2386;42.138;24.746;2023-02-16T06:38:25;101045.81;;;4.20;85.72
4745;BME280;2386;42.138;24.746;2023-02-16T06:40:52;101059.59;;;4.25;86.16
4745;BME280;2386;42.138;24.746;2023-02-16T06:43:17;101046.50;;;4.22;85.85
4745;BME280;2386;42.138;24.746;2023-02-16T06:45:43;101060.59;;;4.24;84.24
4745;BME280;2386;42.138;24.746;2023-02-16T06:48:08;101046.88;;;4.27;84.36
4745;BME280;2386;42.138;24.746;2023-02-16T06:50:34;101044.34;;;4.25;83.13
4745;BME280;2386;42.138;24.746;2023-02-16T06:52:59;101055.38;;;4.22;83.79
4745;BME280;2386;42.138;24.746;2023-02-16T06:55:25;101053.63;;;4.31;83.28
4745;BME280;2386;42.138;24.746;2023-02-16T06:57:50;101055.94;;;4.52;82.19
4745;BME280;2386;42.138;24.746;2023-02-16T07:00:16;101058.47;;;4.53;80.92
4745;BME280;2386;42.138;24.746;2023-02-16T07:02:41;101058.47;;;4.53;81.95
4745;BME280;2386;42.138;24.746;2023-02-16T07:05:08;101059.69;;;4.59;81.76
4745;BME280;2386;42.138;24.746;2023-02-16T07:07:34;101067.66;;;4.69;81.00
4745;BME280;2386;42.138;24.746;2023-02-16T07:09:59;101059.97;;;4.74;80.87
4745;BME280;2386;42.138;24.746;2023-02-16T07:12:27;101056.59;;;4.72;80.24
4745;BME280;2386;42.138;24.746;2023-02-16T07:14:52;101058.22;;;4.65;81.46
4745;BME280;2386;42.138;24.746;2023-02-16T07:17:17;101061.09;;;4.89;80.41
4745;BME280;2386;42.138;24.746;2023-02-16T07:19:43;101055.88;;;4.87;80.91
4745;BME280;2386;42.138;24.746;2023-02-16T07:22:08;101062.56;;;4.83;80.36
4745;BME280;2386;42.138;24.746;2023-02-16T07:24:34;101068.41;;;5.05;79.67
4745;BME280;2386;42.138;24.746;2023-02-16T07:26:59;101068.63;;;5.11;79.63
4745;BME280;2386;42.138;24.746;2023-02-16T07:29:25;101054.38;;;4.93;78.37
4745;BME280;2386;42.138;24.746;2023-02-16T07:31:50;101057.84;;;5.11;78.86
4745;BME280;2386;42.138;24.746;2023-02-16T07:34:16;101045.94;;;5.14;77.55
4745;BME280;2386;42.138;24.746;2023-02-16T07:36:41;101052.72;;;5.34;77.15
4745;BME280;2386;42.138;24.746;2023-02-16T07:39:21;101067.44;;;5.56;77.09
4745;BME280;2386;42.138;24.746;2023-02-16T07:41:47;101072.50;;;5.59;76.72
4745;BME280;2386;42.138;24.746;2023-02-16T07:44:12;101059.53;;;5.54;76.22
4745;BME280;2386;42.138;24.746;2023-02-16T07:46:37;101059.22;;;5.57;76.65
4745;BME280;2386;42.138;24.746;2023-02-16T07:49:03;101067.44;;;5.56;76.48
4745;BME280;2386;42.138;24.746;2023-02-16T07:51:29;101066.66;;;5.72;77.34
4745;BME280;2386;42.138;24.746;2023-02-16T07:53:56;101065.81;;;5.71;75.69
4745;BME280;2386;42.138;24.746;2023-02-16T07:56:28;101068.53;;;5.71;74.39
4745;BME280;2386;42.138;24.746;2023-02-16T07:58:55;101065.56;;;5.99;73.10
4745;BME280;2386;42.138;24.746;2023-02-16T08:01:21;101069.47;;;6.12;72.66
4745;BME280;2386;42.138;24.746;2023-02-16T08:03:47;101067.81;;;6.28;71.71
4745;BME280;2386;42.138;24.746;2023-02-16T08:06:13;101067.97;;;6.18;70.95
4745;BME280;2386;42.138;24.746;2023-02-16T08:08:38;101064.41;;;6.17;72.00
4745;BME280;2386;42.138;24.746;2023-02-16T08:11:13;101064.94;;;6.21;72.69
4745;BME280;2386;42.138;24.746;2023-02-16T08:13:38;101068.78;;;6.02;71.45
4745;BME280;2386;42.138;24.746;2023-02-16T08:16:09;101074.34;;;5.92;71.43
4745;BME280;2386;42.138;24.746;2023-02-16T08:18:36;101072.00;;;6.14;72.08
4745;BME280;2386;42.138;24.746;2023-02-16T08:21:19;101077.75;;;6.43;70.33
4745;BME280;2386;42.138;24.746;2023-02-16T08:23:52;101076.72;;;6.36;69.90
4745;BME280;2386;42.138;24.746;2023-02-16T08:26:19;101074.72;;;6.54;69.56
4745;BME280;2386;42.138;24.746;2023-02-16T08:28:46;101071.00;;;6.39;67.15
4745;BME280;2386;42.138;24.746;2023-02-16T08:31:25;101068.31;;;6.31;67.44
4745;BME280;2386;42.138;24.746;2023-02-16T08:33:53;101072.50;;;6.17;67.04
4745;BME280;2386;42.138;24.746;2023-02-16T08:36:27;101068.97;;;6.17;67.36
4745;BME280;2386;42.138;24.746;2023-02-16T08:38:54;101075.03;;;6.27;68.13
4745;BME280;2386;42.138;24.746;2023-02-16T08:41:23;101075.06;;;6.51;68.07
4745;BME280;2386;42.138;24.746;2023-02-16T08:43:49;101052.81;;;6.66;66.34
4745;BME280;2386;42.138;24.746;2023-02-16T08:46:16;101056.19;;;6.68;64.06
4745;BME280;2386;42.138;24.746;2023-02-16T08:48:42;101046.75;;;6.64;64.71
4745;BME280;2386;42.138;24.746;2023-02-16T08:51:16;101052.09;;;6.80;65.37
4745;BME280;2386;42.138;24.746;2023-02-16T08:53:42;101044.84;;;6.88;63.18
4745;BME280;2386;42.138;24.746;2023-02-16T08:56:09;101044.97;;;7.03;63.45
4745;BME280;2386;42.138;24.746;2023-02-16T08:58:35;101052.03;;;7.12;63.20
4745;BME280;2386;42.138;24.746;2023-02-16T09:01:06;101046.97;;;7.17;62.23
4745;BME280;2386;42.138;24.746;2023-02-16T09:03:33;101043.06;;;7.20;62.21
4745;BME280;2386;42.138;24.746;2023-02-16T09:06:01;101040.97;;;7.38;61.73
4745;BME280;2386;42.138;24.746;2023-02-16T09:08:27;101038.66;;;7.58;62.29
4745;BME280;2386;42.138;24.746;2023-02-16T09:10:53;101045.00;;;7.73;62.39
4745;BME280;2386;42.138;24.746;2023-02-16T09:13:18;101051.66;;;7.94;60.76
4745;BME280;2386;42.138;24.746;2023-02-16T09:15:44;101038.22;;;8.08;59.70
4745;BME280;2386;42.138;24.746;2023-02-16T09:18:10;101029.44;;;8.06;59.26
4745;BME280;2386;42.138;24.746;2023-02-16T09:20:38;101040.66;;;8.18;59.38
4745;BME280;2386;42.138;24.746;2023-02-16T09:23:05;101033.13;;;8.28;58.53
4745;BME280;2386;42.138;24.746;2023-02-16T09:25:34;101026.00;;;8.35;58.33
4745;BME280;2386;42.138;24.746;2023-02-16T09:28:00;101028.22;;;8.54;58.57
4745;BME280;2386;42.138;24.746;2023-02-16T09:30:26;101030.78;;;8.71;58.27
4745;BME280;2386;42.138;24.746;2023-02-16T09:32:51;101039.09;;;8.84;57.62
4745;BME280;2386;42.138;24.746;2023-02-16T09:35:17;101027.78;;;8.95;57.50
4745;BME280;2386;42.138;24.746;2023-02-16T09:37:42;101024.25;;;8.95;56.76
4745;BME280;2386;42.138;24.746;2023-02-16T09:40:11;101022.97;;;8.91;56.74
4745;BME280;2386;42.138;24.746;2023-02-16T09:45:22;101014.28;;;9.25;56.35
4745;BME280;2386;42.138;24.746;2023-02-16T09:47:49;101019.97;;;9.30;55.28
4745;BME280;2386;42.138;24.746;2023-02-16T09:50:24;101007.63;;;9.27;54.69
4745;BME280;2386;42.138;24.746;2023-02-16T09:52:56;101008.19;;;9.37;55.55
4745;BME280;2386;42.138;24.746;2023-02-16T09:55:30;101010.50;;;9.55;55.59
4745;BME280;2386;42.138;24.746;2023-02-16T09:58:01;101009.28;;;9.58;55.12
4745;BME280;2386;42.138;24.746;2023-02-16T10:00:35;101005.22;;;9.68;54.11
4745;BME280;2386;42.138;24.746;2023-02-16T10:08:29;100995.00;;;9.49;54.46
4745;BME280;2386;42.138;24.746;2023-02-16T10:11:09;100988.59;;;9.35;54.14
4745;BME280;2386;42.138;24.746;2023-02-16T10:14:06;100988.38;;;9.51;53.73
4745;BME280;2386;42.138;24.746;2023-02-16T10:16:40;100981.84;;;9.67;53.72
4745;BME280;2386;42.138;24.746;2023-02-16T10:19:22;100984.72;;;9.80;53.33
4745;BME280;2386;42.138;24.746;2023-02-16T10:21:55;100970.41;;;9.86;53.26
4745;BME280;2386;42.138;24.746;2023-02-16T10:24:25;100979.69;;;9.99;52.33
4745;BME280;2386;42.138;24.746;2023-02-16T10:27:14;100964.97;;;10.08;53.05
4745;BME280;2386;42.138;24.746;2023-02-16T10:29:39;100965.00;;;10.29;51.49
4745;BME280;2386;42.138;24.746;2023-02-16T10:32:27;100966.53;;;10.38;51.07
4745;BME280;2386;42.138;24.746;2023-02-16T10:35:02;100960.69;;;10.41;50.17
4745;BME280;2386;42.138;24.746;2023-02-16T10:43:15;100955.50;;;10.40;50.44
4745;BME280;2386;42.138;24.746;2023-02-16T10:45:48;100962.09;;;10.31;51.06
4745;BME280;2386;42.138;24.746;2023-02-16T10:48:14;100955.50;;;10.46;50.38
4745;BME280;2386;42.138;24.746;2023-02-16T10:55:56;100940.06;;;10.75;48.94
4745;BME280;2386;42.138;24.746;2023-02-16T10:58:25;100934.69;;;10.81;48.51
4745;BME280;2386;42.138;24.746;2023-02-16T11:01:15;100934.88;;;10.80;48.09
4745;BME280;2386;42.138;24.746;2023-02-16T11:03:50;100934.47;;;10.83;48.04
4745;BME280;2386;42.138;24.746;2023-02-16T11:08:50;100920.34;;;10.94;47.31
4745;BME280;2386;42.138;24.746;2023-02-16T11:11:18;100920.97;;;10.96;47.37
4745;BME280;2386;42.138;24.746;2023-02-16T11:13:48;100917.03;;;10.99;47.67
4745;BME280;2386;42.138;24.746;2023-02-16T11:16:21;100907.88;;;11.06;47.78
4745;BME280;2386;42.138;24.746;2023-02-16T11:19:38;100910.75;;;10.98;48.00
4745;BME280;2386;42.138;24.746;2023-02-16T11:21:49;100904.63;;;10.83;47.61
4745;BME280;2386;42.138;24.746;2023-02-16T11:27:04;100900.72;;;10.99;47.76
4745;BME280;2386;42.138;24.746;2023-02-16T11:29:31;100896.16;;;11.06;47.90
4745;BME280;2386;42.138;24.746;2023-02-16T11:31:57;100889.09;;;11.11;46.76
4745;BME280;2386;42.138;24.746;2023-02-16T11:34:34;100881.13;;;11.16;46.49
4745;BME280;2386;42.138;24.746;2023-02-16T11:37:06;100877.00;;;11.27;46.37
4745;BME280;2386;42.138;24.746;2023-02-16T11:39:39;100873.06;;;11.36;46.91
4745;BME280;2386;42.138;24.746;2023-02-16T11:42:18;100870.72;;;11.27;46.58
4745;BME280;2386;42.138;24.746;2023-02-16T11:44:52;100868.19;;;11.18;46.45
4745;BME280;2386;42.138;24.746;2023-02-16T11:47:27;100870.72;;;11.13;45.45
4745;BME280;2386;42.138;24.746;2023-02-16T11:52:43;100854.66;;;11.32;46.59
4745;BME280;2386;42.138;24.746;2023-02-16T11:57:48;100858.22;;;11.39;45.85
4745;BME280;2386;42.138;24.746;2023-02-16T12:00:19;100853.22;;;11.49;45.27
4745;BME280;2386;42.138;24.746;2023-02-16T12:13:43;100828.22;;;11.80;46.45
4745;BME280;2386;42.138;24.746;2023-02-16T12:18:56;100821.31;;;11.77;44.95
4745;BME280;2386;42.138;24.746;2023-02-16T12:27:17;100806.22;;;11.95;45.74
4745;BME280;2386;42.138;24.746;2023-02-16T12:30:06;100802.66;;;12.01;44.34
4745;BME280;2386;42.138;24.746;2023-02-16T12:38:54;100796.16;;;12.08;43.51
4745;BME280;2386;42.138;24.746;2023-02-16T12:44:23;100786.56;;;12.06;43.60
4745;BME280;2386;42.138;24.746;2023-02-16T12:47:00;100787.16;;;12.14;44.43
4745;BME280;2386;42.138;24.746;2023-02-16T12:49:31;100778.16;;;12.14;43.35
4745;BME280;2386;42.138;24.746;2023-02-16T12:52:33;100775.03;;;12.10;44.09
4745;BME280;2386;42.138;24.746;2023-02-16T12:58:02;100772.72;;;12.21;44.30
4745;BME280;2386;42.138;24.746;2023-02-16T13:00:50;100772.72;;;12.21;44.38
4745;BME280;2386;42.138;24.746;2023-02-16T13:06:10;100770.41;;;12.24;44.87
4745;BME280;2386;42.138;24.746;2023-02-16T13:08:43;100763.75;;;12.07;43.97
4745;BME280;2386;42.138;24.746;2023-02-16T13:11:35;100755.34;;;12.15;44.34
4745;BME280;2386;42.138;24.746;2023-02-16T13:14:05;100751.16;;;12.19;43.88
4745;BME280;2386;42.138;24.746;2023-02-16T13:16:43;100744.69;;;12.20;43.36
4745;BME280;2386;42.138;24.746;2023-02-16T13:19:12;100749.69;;;12.23;43.88
4745;BME280;2386;42.138;24.746;2023-02-16T13:32:15;100737.53;;;12.32;44.88
4745;BME280;2386;42.138;24.746;2023-02-16T13:34:55;100733.97;;;12.32;44.67
4745;BME280;2386;42.138;24.746;2023-02-16T13:40:53;100726.03;;;12.30;45.37
4745;BME280;2386;42.138;24.746;2023-02-16T13:45:45;100718.91;;;12.29;43.88
4745;BME280;2386;42.138;24.746;2023-02-16T13:48:15;100722.25;;;12.31;44.11
4745;BME280;2386;42.138;24.746;2023-02-16T13:50:57;100715.75;;;12.32;44.53
4745;BME280;2386;42.138;24.746;2023-02-16T13:53:24;100718.69;;;12.31;43.27
4745;BME280;2386;42.138;24.746;2023-02-16T13:56:11;100723.50;;;12.35;43.33
4745;BME280;2386;42.138;24.746;2023-02-16T13:58:37;100719.72;;;12.36;43.17
4745;BME280;2386;42.138;24.746;2023-02-16T14:04:04;100705.31;;;12.29;43.89
4745;BME280;2386;42.138;24.746;2023-02-16T14:06:36;100717.84;;;12.37;43.64
4745;BME280;2386;42.138;24.746;2023-02-16T14:19:47;100687.94;;;12.30;43.54
4745;BME280;2386;42.138;24.746;2023-02-16T14:22:17;100708.41;;;12.39;42.85
4745;BME280;2386;42.138;24.746;2023-02-16T14:24:50;100702.97;;;12.39;42.89
4745;BME280;2386;42.138;24.746;2023-02-16T14:27:50;100695.84;;;12.38;42.67
4745;BME280;2386;42.138;24.746;2023-02-16T14:30:33;100702.13;;;12.39;43.24
4745;BME280;2386;42.138;24.746;2023-02-16T14:35:36;100697.31;;;12.41;42.86
4745;BME280;2386;42.138;24.746;2023-02-16T14:38:04;100688.31;;;12.40;43.40
4745;BME280;2386;42.138;24.746;2023-02-16T14:43:10;100684.97;;;12.38;43.17
4745;BME280;2386;42.138;24.746;2023-02-16T14:46:10;100672.84;;;12.34;43.67
4745;BME280;2386;42.138;24.746;2023-02-16T15:00:33;100675.81;;;12.26;43.75
4745;BME280;2386;42.138;24.746;2023-02-16T15:03:25;100671.41;;;12.25;43.83
4745;BME280;2386;42.138;24.746;2023-02-16T15:05:59;100671.63;;;12.24;44.39
4745;BME280;2386;42.138;24.746;2023-02-16T15:08:30;100669.34;;;12.21;44.14
4745;BME280;2386;42.138;24.746;2023-02-16T15:11:13;100672.69;;;12.23;43.64
4745;BME280;2386;42.138;24.746;2023-02-16T15:13:40;100678.34;;;12.21;44.09
4745;BME280;2386;42.138;24.746;2023-02-16T15:16:09;100677.72;;;12.19;44.64
4745;BME280;2386;42.138;24.746;2023-02-16T15:18:43;100671.25;;;12.13;44.22
4745;BME280;2386;42.138;24.746;2023-02-16T15:21:16;100677.97;;;12.11;44.77
4745;BME280;2386;42.138;24.746;2023-02-16T15:23:55;100672.13;;;12.07;44.60
4745;BME280;2386;42.138;24.746;2023-02-16T15:26:32;100680.69;;;12.04;44.60
4745;BME280;2386;42.138;24.746;2023-02-16T15:29:16;100668.38;;;11.95;45.19
4745;BME280;2386;42.138;24.746;2023-02-16T15:31:45;100684.91;;;12.00;45.53
4745;BME280;2386;42.138;24.746;2023-02-16T15:34:13;100681.56;;;11.98;45.19
4745;BME280;2386;42.138;24.746;2023-02-16T15:36:42;100681.16;;;11.95;45.90
4745;BME280;2386;42.138;24.746;2023-02-16T15:39:13;100684.91;;;11.94;45.67
4745;BME280;2386;42.138;24.746;2023-02-16T15:41:42;100688.06;;;11.91;45.22